Time;durP1;ratioP1;P1;durP2;ratioP2;P2;SDS_P1;SDS_P2;PMS_P1;PMS_P2;Temp;Humidity;BMP_temperature;BMP_pressure;BME280_temperature;BME280_humidity;BME280_pressure;Samples;Min_cycle;Max_cycle;Signal;HPM_P1;HPM_P2
2023/04/24 00:01:52;;;;;;;2.83;1.73;;;11.40;99.90;11.30;99335.00;;;;4934917;28;116270;-67
2023/04/24 00:04:18;;;;;;;1.27;1.07;;;11.40;99.90;11.30;99344.00;;;;4934267;28;88334;-67
2023/04/24 00:06:44;;;;;;;1.27;0.87;;;11.30;99.90;11.30;99335.00;;;;4936125;28;108792;-67
2023/04/24 00:09:10;;;;;;;3.17;1.70;;;11.30;99.90;11.20;99333.00;;;;4935072;28;117160;-67
2023/04/24 00:11:36;;;;;;;1.37;1.10;;;11.30;99.90;11.20;99328.00;;;;4932705;28;88027;-67
2023/04/24 00:14:02;;;;;;;1.83;1.17;;;11.30;99.90;11.20;99326.00;;;;4931318;28;89077;-67
2023/04/24 00:16:28;;;;;;;1.57;1.20;;;11.30;99.90;11.10;99336.00;;;;4936899;28;97703;-67
2023/04/24 00:18:54;;;;;;;2.40;1.33;;;11.20;99.90;11.10;99325.00;;;;4933022;28;88575;-67
2023/04/24 00:21:21;;;;;;;1.90;1.40;;;11.20;99.90;11.10;99326.00;;;;4933478;28;87937;-68
2023/04/24 00:23:47;;;;;;;2.90;1.33;;;11.10;99.90;11.10;99315.00;;;;4937070;28;87940;-67
2023/04/24 00:26:14;;;;;;;1.40;1.20;;;11.20;99.90;11.10;99311.00;;;;4937453;28;87798;-67
2023/04/24 00:28:39;;;;;;;2.37;1.40;;;11.10;99.90;11.10;99312.00;;;;4933427;28;117933;-68
2023/04/24 00:31:05;;;;;;;1.33;1.23;;;11.10;99.90;11.00;99310.00;;;;4932393;28;117237;-67
2023/04/24 00:33:30;;;;;;;1.40;1.30;;;11.10;99.90;11.00;99313.00;;;;4931812;28;97357;-69
2023/04/24 00:35:56;;;;;;;1.87;1.63;;;11.10;99.90;11.00;99312.00;;;;4931377;28;108087;-68
2023/04/24 00:38:22;;;;;;;6.20;1.20;;;11.10;99.90;11.00;99310.00;;;;4931490;28;114480;-68
2023/04/24 00:40:49;;;;;;;1.30;1.20;;;11.10;99.90;11.00;99326.00;;;;4929723;28;118733;-69
2023/04/24 00:43:16;;;;;;;2.10;1.60;;;11.10;99.90;11.00;99331.00;;;;4929699;28;87905;-68
2023/04/24 00:45:42;;;;;;;2.57;1.27;;;11.00;99.90;11.00;99319.00;;;;4932866;28;93986;-69
2023/04/24 00:48:08;;;;;;;1.07;1.07;;;11.10;99.90;11.00;99324.00;;;;4929590;28;117092;-68
2023/04/24 00:50:35;;;;;;;1.73;1.63;;;11.00;99.90;11.00;99325.00;;;;4929252;28;116291;-68
2023/04/24 00:53:01;;;;;;;2.60;1.47;;;11.00;99.90;11.00;99328.00;;;;4933319;28;102935;-68
2023/04/24 00:55:27;;;;;;;2.43;1.30;;;11.10;99.90;11.00;99321.00;;;;4933235;28;108426;-68
2023/04/24 00:57:53;;;;;;;1.07;1.07;;;11.00;99.90;11.00;99320.00;;;;4935189;28;88156;-68
2023/04/24 01:00:19;;;;;;;1.27;1.00;;;11.00;99.90;11.00;99320.00;;;;4930115;28;117217;-68
2023/04/24 01:02:45;;;;;;;2.13;1.30;;;11.00;99.90;11.00;99332.00;;;;4933339;28;110758;-68
2023/04/24 01:05:13;;;;;;;3.10;1.10;;;11.00;99.90;11.00;99326.00;;;;4935479;28;87958;-68
2023/04/24 01:07:43;;;;;;;2.03;1.83;;;11.00;99.90;11.00;99325.00;;;;4935195;28;87799;-68
2023/04/24 01:10:09;;;;;;;0.93;0.93;;;11.00;99.90;11.00;99328.00;;;;4932916;28;88832;-69
2023/04/24 01:12:35;;;;;;;1.90;1.67;;;11.00;99.90;11.00;99318.00;;;;4934141;28;101405;-68
2023/04/24 01:15:01;;;;;;;2.20;1.73;;;11.00;99.90;11.00;99306.00;;;;4923954;28;104976;-69
2023/04/24 01:17:27;;;;;;;2.33;1.70;;;11.00;99.90;11.00;99310.00;;;;4918855;28;90508;-68
2023/04/24 01:19:59;;;;;;;5.00;1.50;;;11.00;99.90;11.10;99306.00;;;;4936685;28;112779;-68
2023/04/24 01:22:25;;;;;;;2.10;1.87;;;11.10;99.90;11.10;99306.00;;;;4937108;28;88832;-68
2023/04/24 01:24:52;;;;;;;3.97;1.80;;;11.10;99.90;11.10;99317.00;;;;4933333;28;102782;-67
2023/04/24 01:27:19;;;;;;;1.90;1.67;;;11.10;99.90;11.10;99311.00;;;;4931757;28;88965;-67
2023/04/24 01:29:45;;;;;;;1.20;1.10;;;11.10;99.90;11.20;99311.00;;;;4932181;28;89890;-67
2023/04/24 01:32:11;;;;;;;2.20;1.47;;;11.20;99.90;11.20;99294.00;;;;4929053;28;88366;-67
2023/04/24 01:34:39;;;;;;;1.63;1.17;;;11.20;99.90;11.20;99304.00;;;;4933350;28;110145;-67
2023/04/24 01:37:05;;;;;;;1.63;1.40;;;11.30;99.90;11.30;99311.00;;;;4929314;28;87936;-68
2023/04/24 01:39:31;;;;;;;2.77;1.90;;;11.30;99.90;11.30;99309.00;;;;4927495;28;117455;-67
2023/04/24 01:41:56;;;;;;;2.03;1.50;;;11.30;99.90;11.30;99296.00;;;;4933932;28;87759;-67
2023/04/24 01:44:23;;;;;;;1.67;1.30;;;11.30;99.90;11.30;99308.00;;;;4929661;28;87159;-67
2023/04/24 01:46:48;;;;;;;3.03;1.73;;;11.30;99.90;11.30;99311.00;;;;4928739;28;88747;-67
2023/04/24 01:49:15;;;;;;;3.50;1.70;;;11.30;99.90;11.30;99306.00;;;;4930990;28;117178;-67
2023/04/24 01:51:41;;;;;;;2.77;1.80;;;11.30;99.90;11.30;99283.00;;;;4929786;28;88783;-67
2023/04/24 01:54:06;;;;;;;1.60;1.43;;;11.30;99.90;11.30;99299.00;;;;4932058;28;88127;-67
2023/04/24 01:56:36;;;;;;;3.90;1.67;;;11.30;99.90;11.30;99293.00;;;;4931059;28;111712;-67
2023/04/24 01:59:03;;;;;;;1.93;1.50;;;11.30;99.90;11.30;99288.00;;;;4933073;28;88556;-67
2023/04/24 02:01:38;;;;;;;3.43;1.87;;;11.30;99.90;11.30;99290.00;;;;4934572;28;87720;-68
2023/04/24 02:04:05;;;;;;;1.73;1.63;;;11.30;99.90;11.30;99284.00;;;;4929408;28;87954;-67
2023/04/24 02:06:31;;;;;;;3.13;1.50;;;11.40;99.90;11.30;99281.00;;;;4927201;28;88151;-67
2023/04/24 02:08:58;;;;;;;2.20;2.10;;;11.40;99.90;11.30;99289.00;;;;4937892;28;88641;-67
2023/04/24 02:11:24;;;;;;;2.10;1.73;;;11.40;99.90;11.30;99291.00;;;;4937885;28;89045;-67
2023/04/24 02:13:51;;;;;;;3.27;1.10;;;11.30;99.90;11.30;99297.00;;;;4938944;28;87854;-67
2023/04/24 02:16:17;;;;;;;2.00;1.60;;;11.30;99.90;11.30;99288.00;;;;4933499;28;89151;-67
2023/04/24 02:18:42;;;;;;;4.17;1.13;;;11.30;99.90;11.30;99289.00;;;;4936051;28;95205;-67
2023/04/24 02:21:09;;;;;;;2.83;1.53;;;11.30;99.90;11.30;99297.00;;;;4930834;28;94087;-67
2023/04/24 02:23:34;;;;;;;1.93;1.57;;;11.30;99.90;11.30;99287.00;;;;4935257;28;87517;-67
2023/04/24 02:26:00;;;;;;;1.30;1.20;;;11.00;99.90;11.30;99300.00;;;;4936240;28;88937;-67
2023/04/24 02:28:26;;;;;;;1.93;1.40;;;11.30;99.90;11.30;99306.00;;;;4936799;28;117427;-67
2023/04/24 02:30:51;;;;;;;2.13;1.63;;;11.30;99.90;11.30;99296.00;;;;4936939;28;110579;-67
2023/04/24 02:33:17;;;;;;;3.70;2.10;;;11.30;99.90;11.30;99284.00;;;;4933496;28;108826;-67
2023/04/24 02:35:42;;;;;;;1.83;1.57;;;11.30;99.90;11.30;99286.00;;;;4935690;28;119588;-67
2023/04/24 02:38:08;;;;;;;1.93;1.60;;;11.30;99.90;11.40;99282.00;;;;4937185;28;116386;-67
2023/04/24 02:40:34;;;;;;;1.77;1.43;;;11.40;99.90;11.40;99288.00;;;;4937527;28;88806;-66
2023/04/24 02:43:00;;;;;;;2.33;1.50;;;11.40;99.90;11.40;99288.00;;;;4932051;28;87891;-66
2023/04/24 02:45:25;;;;;;;3.37;1.53;;;11.40;99.90;11.40;99289.00;;;;4934860;28;105315;-66
2023/04/24 02:47:51;;;;;;;1.43;1.27;;;11.50;99.90;11.50;99287.00;;;;4932486;28;119684;-66
2023/04/24 02:50:17;;;;;;;2.27;1.57;;;11.50;99.90;11.50;99290.00;;;;4935971;28;87986;-66
2023/04/24 02:52:42;;;;;;;1.70;1.60;;;11.50;99.90;11.50;99282.00;;;;4939983;28;101288;-66
2023/04/24 02:55:08;;;;;;;2.30;1.63;;;11.60;99.90;11.60;99284.00;;;;4935772;28;89128;-67
2023/04/24 02:57:34;;;;;;;3.67;1.63;;;11.60;99.90;11.60;99273.00;;;;4932777;28;118049;-66
2023/04/24 03:00:00;;;;;;;2.47;1.57;;;11.60;99.90;11.70;99277.00;;;;4935532;28;87988;-66
2023/04/24 03:02:25;;;;;;;1.03;1.03;;;11.70;99.90;11.70;99279.00;;;;4932540;28;87788;-67
2023/04/24 03:04:51;;;;;;;2.03;1.70;;;11.70;99.90;11.80;99276.00;;;;4930546;28;117905;-66
2023/04/24 03:07:20;;;;;;;1.53;1.43;;;11.80;99.90;11.80;99276.00;;;;4933987;28;116619;-66
2023/04/24 03:09:47;;;;;;;2.60;1.90;;;11.80;99.90;11.80;99285.00;;;;4935844;28;87945;-66
2023/04/24 03:12:12;;;;;;;1.47;1.23;;;11.80;99.90;11.90;99281.00;;;;4936873;28;87863;-66
2023/04/24 03:14:38;;;;;;;1.97;1.63;;;11.80;99.90;11.90;99288.00;;;;4933916;28;118818;-67
2023/04/24 03:17:04;;;;;;;2.27;1.40;;;11.90;99.90;11.90;99290.00;;;;4934237;28;115919;-66
2023/04/24 03:19:30;;;;;;;1.67;1.53;;;11.90;99.90;12.00;99288.00;;;;4934438;28;87895;-66
2023/04/24 03:21:55;;;;;;;3.97;1.60;;;12.00;99.90;12.00;99290.00;;;;4933640;28;87112;-66
2023/04/24 03:24:21;;;;;;;1.70;1.60;;;12.00;99.90;12.00;99289.00;;;;4931421;28;117013;-66
2023/04/24 03:26:47;;;;;;;1.40;1.30;;;12.00;99.90;12.00;99283.00;;;;4934344;28;107161;-68
2023/04/24 03:29:12;;;;;;;2.30;1.60;;;12.00;99.90;12.10;99283.00;;;;4932400;28;111065;-66
2023/04/24 03:31:38;;;;;;;1.97;1.37;;;12.10;99.90;12.10;99291.00;;;;4933940;28;108795;-66
2023/04/24 03:34:03;;;;;;;2.73;1.33;;;12.10;99.90;12.10;99285.00;;;;4932690;28;117687;-66
2023/04/24 03:36:30;;;;;;;2.77;1.97;;;12.10;99.90;12.10;99294.00;;;;4906750;28;117191;-66
2023/04/24 03:38:56;;;;;;;3.63;1.77;;;12.10;99.90;12.10;99295.00;;;;4934296;28;87832;-66
2023/04/24 03:41:22;;;;;;;1.40;1.27;;;12.10;99.90;12.10;99288.00;;;;4931217;28;108891;-67
2023/04/24 03:43:48;;;;;;;2.13;1.63;;;12.10;99.90;12.10;99286.00;;;;4934264;28;88614;-66
2023/04/24 03:46:13;;;;;;;5.10;2.07;;;12.10;99.90;12.10;99290.00;;;;4933465;28;117433;-67
2023/04/24 03:48:39;;;;;;;2.33;1.60;;;12.10;99.90;12.10;99297.00;;;;4937847;28;87985;-66
2023/04/24 03:51:05;;;;;;;3.40;1.67;;;12.10;99.90;12.10;99300.00;;;;4931896;28;87983;-66
2023/04/24 03:53:30;;;;;;;2.80;1.40;;;12.10;99.90;12.10;99298.00;;;;4932294;28;116167;-66
2023/04/24 03:55:56;;;;;;;1.23;1.10;;;12.10;99.90;12.10;99297.00;;;;4936016;28;118122;-67
2023/04/24 03:58:22;;;;;;;1.57;1.47;;;12.10;99.90;12.10;99308.00;;;;4929926;28;112076;-66
2023/04/24 04:00:47;;;;;;;1.07;0.97;;;12.10;99.90;12.10;99315.00;;;;4931838;28;108581;-66
2023/04/24 04:03:14;;;;;;;1.37;1.27;;;12.10;99.90;12.00;99317.00;;;;4933795;28;88423;-66
2023/04/24 04:05:40;;;;;;;2.23;1.40;;;12.10;99.90;12.00;99318.00;;;;4933403;28;89031;-67
2023/04/24 04:08:06;;;;;;;1.77;1.20;;;12.10;99.90;12.00;99329.00;;;;4933390;28;88252;-67
2023/04/24 04:10:31;;;;;;;1.73;1.27;;;12.10;99.90;12.00;99329.00;;;;4933628;28;109998;-66
2023/04/24 04:12:57;;;;;;;1.27;1.13;;;12.10;99.90;12.10;99326.00;;;;4930999;28;116850;-68
2023/04/24 04:15:23;;;;;;;0.93;0.77;;;12.10;99.90;12.10;99328.00;;;;4932252;28;116582;-66
2023/04/24 04:17:48;;;;;;;1.07;1.07;;;12.10;99.90;12.10;99323.00;;;;4931411;28;110287;-67
2023/04/24 04:20:14;;;;;;;1.17;1.07;;;12.10;99.90;12.10;99328.00;;;;4929954;28;107797;-66
2023/04/24 04:22:40;;;;;;;1.37;0.87;;;12.10;99.90;12.10;99336.00;;;;4932919;28;116978;-66
2023/04/24 04:25:06;;;;;;;0.93;0.80;;;12.10;99.90;12.20;99330.00;;;;4930689;28;118489;-67
2023/04/24 04:27:32;;;;;;;2.17;0.90;;;12.20;99.90;12.20;99330.00;;;;4934817;28;88022;-66
2023/04/24 04:30:04;;;;;;;1.90;0.60;;;12.20;99.90;12.30;99337.00;;;;4937105;28;110338;-67
2023/04/24 04:32:33;;;;;;;1.53;0.80;;;12.20;99.90;12.30;99328.00;;;;4932401;28;88535;-67
2023/04/24 04:35:03;;;;;;;0.80;0.50;;;12.30;99.90;12.40;99337.00;;;;4933021;28;87605;-67
2023/04/24 04:37:33;;;;;;;0.87;0.87;;;12.30;99.90;12.40;99341.00;;;;4929781;28;87951;-68
2023/04/24 04:39:59;;;;;;;2.27;0.87;;;12.40;99.90;12.40;99338.00;;;;4928567;28;106947;-68
2023/04/24 04:42:28;;;;;;;0.80;0.70;;;12.40;99.90;12.40;99332.00;;;;4931395;28;100079;-68
2023/04/24 04:44:57;;;;;;;0.90;0.57;;;12.40;99.90;12.50;99334.00;;;;4932643;28;88929;-66
2023/04/24 04:47:31;;;;;;;0.50;0.37;;;12.50;99.90;12.50;99339.00;;;;4940778;28;88840;-67
2023/04/24 04:49:57;;;;;;;0.60;0.60;;;12.50;99.90;12.50;99336.00;;;;4929421;28;87906;-67
2023/04/24 04:52:26;;;;;;;1.10;0.50;;;12.50;99.90;12.60;99335.00;;;;4930064;28;117606;-66
2023/04/24 04:54:52;;;;;;;0.70;0.40;;;12.50;99.90;12.60;99337.00;;;;4931417;28;88055;-67
2023/04/24 04:57:17;;;;;;;2.13;0.67;;;12.50;99.90;12.60;99349.00;;;;4926343;28;106993;-66
2023/04/24 04:59:43;;;;;;;0.70;0.70;;;12.60;99.90;12.60;99342.00;;;;4928712;28;109003;-67
2023/04/24 05:02:09;;;;;;;0.60;0.30;;;12.60;99.90;12.60;99349.00;;;;4930319;28;88527;-67
2023/04/24 05:04:35;;;;;;;0.40;0.40;;;12.60;99.90;12.70;99349.00;;;;4928684;28;89084;-68
2023/04/24 05:07:00;;;;;;;0.60;0.50;;;12.60;99.90;12.70;99347.00;;;;4927911;28;107831;-66
2023/04/24 05:09:28;;;;;;;2.10;1.17;;;12.70;99.90;12.70;99340.00;;;;4929088;28;109372;-67
2023/04/24 05:11:57;;;;;;;1.53;1.30;;;12.70;99.90;12.70;99354.00;;;;4930865;28;87952;-66
2023/04/24 05:14:22;;;;;;;1.40;1.30;;;12.70;99.90;12.70;99357.00;;;;4928458;28;99085;-67
2023/04/24 05:16:48;;;;;;;1.37;0.80;;;12.70;99.90;12.80;99346.00;;;;4927018;28;87793;-67
2023/04/24 05:19:14;;;;;;;1.10;1.00;;;12.70;99.90;12.80;99352.00;;;;4928500;28;107761;-67
2023/04/24 05:21:40;;;;;;;1.43;0.70;;;12.80;99.90;12.80;99360.00;;;;4932500;28;87617;-66
2023/04/24 05:24:06;;;;;;;1.33;0.97;;;12.80;99.90;12.90;99366.00;;;;4930996;28;103403;-67
2023/04/24 05:26:32;;;;;;;2.17;1.23;;;12.80;99.90;12.90;99359.00;;;;4930242;28;102148;-67
2023/04/24 05:28:58;;;;;;;1.77;1.33;;;12.90;99.90;13.00;99356.00;;;;4928891;28;107296;-67
2023/04/24 05:31:25;;;;;;;1.07;0.80;;;12.90;99.90;13.00;99359.00;;;;4931680;28;112136;-67
2023/04/24 05:33:50;;;;;;;1.57;1.07;;;13.00;99.90;13.10;99361.00;;;;4931428;28;89450;-67
2023/04/24 05:36:16;;;;;;;0.40;0.40;;;13.00;99.90;13.10;99359.00;;;;4932434;28;110171;-66
2023/04/24 05:38:42;;;;;;;0.67;0.30;;;13.10;99.90;13.10;99367.00;;;;4932710;28;91467;-67
2023/04/24 05:41:07;;;;;;;2.20;0.53;;;13.10;99.90;13.20;99367.00;;;;4925638;28;118521;-66
2023/04/24 05:43:33;;;;;;;0.57;0.57;;;13.20;99.90;13.30;99366.00;;;;4928205;28;115794;-66
2023/04/24 05:45:59;;;;;;;0.77;0.40;;;13.20;99.90;13.30;99364.00;;;;4931092;28;109963;-67
2023/04/24 05:48:25;;;;;;;0.30;0.30;;;13.30;99.90;13.40;99367.00;;;;4932515;28;108923;-66
2023/04/24 05:50:52;;;;;;;0.60;0.50;;;13.30;99.90;13.40;99368.00;;;;4935177;28;88076;-66
2023/04/24 05:53:18;;;;;;;1.60;0.30;;;13.30;99.90;13.50;99363.00;;;;4930289;28;90204;-66
2023/04/24 05:55:44;;;;;;;1.80;0.70;;;13.40;99.90;13.60;99359.00;;;;4929736;28;101212;-66
2023/04/24 05:58:10;;;;;;;0.83;0.50;;;13.50;99.90;13.70;99361.00;;;;4935167;28;89634;-66
2023/04/24 06:00:36;;;;;;;0.80;0.50;;;13.60;99.90;13.70;99359.00;;;;4932609;28;108847;-66
2023/04/24 06:03:03;;;;;;;3.60;0.50;;;13.70;99.90;13.80;99358.00;;;;4934717;28;88052;-66
2023/04/24 06:05:30;;;;;;;0.50;0.50;;;13.70;99.90;13.90;99356.00;;;;4932097;28;87742;-67
2023/04/24 06:07:55;;;;;;;0.57;0.30;;;13.80;99.90;14.00;99358.00;;;;4932363;28;88028;-66
2023/04/24 06:10:21;;;;;;;0.30;0.30;;;13.90;99.90;14.00;99358.00;;;;4931404;28;117025;-66
2023/04/24 06:12:47;;;;;;;0.55;0.55;;;14.00;99.90;14.10;99357.00;;;;4929686;28;104727;-66
2023/04/24 06:15:12;;;;;;;0.30;0.30;;;14.00;99.90;14.20;99360.00;;;;4929688;28;110232;-66
2023/04/24 06:17:38;;;;;;;0.33;0.33;;;14.10;99.90;14.20;99368.00;;;;4934789;28;87874;-66
2023/04/24 06:20:06;;;;;;;0.30;0.30;;;14.10;99.90;14.30;99369.00;;;;4930877;28;119025;-66
2023/04/24 06:22:32;;;;;;;0.65;0.65;;;14.20;99.90;14.40;99366.00;;;;4935328;28;89426;-66
2023/04/24 06:24:57;;;;;;;0.60;0.60;;;14.30;99.90;14.40;99374.00;;;;4933158;28;108629;-66
2023/04/24 06:27:23;;;;;;;0.60;0.45;;;14.30;99.90;14.50;99369.00;;;;4928499;28;110072;-65
2023/04/24 06:29:54;;;;;;;0.40;0.40;;;14.40;99.90;14.50;99380.00;;;;4931562;28;118222;-66
2023/04/24 06:32:24;;;;;;;0.28;0.28;;;14.20;99.90;14.60;99376.00;;;;4931116;28;88736;-66
2023/04/24 06:34:52;;;;;;;0.50;0.38;;;14.50;99.90;14.70;99370.00;;;;4914545;28;88144;-66
2023/04/24 06:37:22;;;;;;;0.30;0.30;;;14.60;99.90;14.70;99366.00;;;;4934459;28;87173;-66
2023/04/24 06:39:47;;;;;;;0.50;0.30;;;14.60;99.90;14.80;99369.00;;;;4931787;28;88110;-66
2023/04/24 06:42:13;;;;;;;0.90;0.65;;;14.70;99.90;14.80;99371.00;;;;4930041;28;117127;-66
2023/04/24 06:44:42;;;;;;;0.65;0.60;;;14.70;99.90;14.80;99375.00;;;;4932003;28;110427;-66
2023/04/24 06:47:09;;;;;;;0.20;0.20;;;14.70;99.90;14.80;99374.00;;;;4932305;28;88044;-66
2023/04/24 06:49:37;;;;;;;0.50;0.50;;;14.70;99.90;14.80;99378.00;;;;4930611;28;88784;-67
2023/04/24 06:52:03;;;;;;;0.50;0.50;;;14.80;99.90;14.80;99381.00;;;;4932502;28;109525;-66
2023/04/24 06:54:29;;;;;;;4.22;0.57;;;14.70;99.90;14.80;99371.00;;;;4930022;28;88150;-66
2023/04/24 06:56:57;;;;;;;0.38;0.38;;;14.80;99.90;15.00;99369.00;;;;4931767;28;87879;-66
2023/04/24 06:59:26;;;;;;;0.40;0.40;;;14.90;99.90;15.10;99362.00;;;;4937947;28;88206;-67
2023/04/24 07:01:52;;;;;;;0.68;0.45;;;15.00;99.90;15.40;99372.00;;;;4936686;28;100624;-67
2023/04/24 07:04:18;;;;;;;0.70;0.38;;;15.20;99.90;15.70;99375.00;;;;4935915;28;98678;-67
2023/04/24 07:06:46;;;;;;;0.45;0.45;;;15.50;99.90;16.00;99373.00;;;;4936480;28;87861;-67
2023/04/24 07:09:13;;;;;;;0.55;0.52;;;15.80;99.90;16.30;99377.00;;;;4931548;28;88746;-67
2023/04/24 07:11:40;;;;;;;0.55;0.55;;;16.10;99.90;16.40;99379.00;;;;4937170;28;89675;-67
2023/04/24 07:14:06;;;;;;;1.60;0.77;;;16.30;99.90;16.50;99382.00;;;;4932577;28;87918;-66
2023/04/24 07:16:32;;;;;;;0.95;0.50;;;16.40;99.90;16.70;99378.00;;;;4935058;28;88283;-66
2023/04/24 07:18:58;;;;;;;0.47;0.47;;;16.60;99.90;16.80;99381.00;;;;4935143;28;90909;-66
2023/04/24 07:21:24;;;;;;;1.88;0.55;;;16.70;99.90;16.80;99374.00;;;;4934873;28;116693;-66
2023/04/24 07:23:50;;;;;;;0.65;0.47;;;16.70;99.90;16.90;99377.00;;;;4934447;28;87747;-66
2023/04/24 07:26:16;;;;;;;0.40;0.40;;;16.80;99.90;17.10;99368.00;;;;4934975;28;107830;-67
2023/04/24 07:28:41;;;;;;;0.43;0.40;;;17.00;99.90;17.10;99368.00;;;;4933775;28;88831;-68
2023/04/24 07:31:10;;;;;;;0.90;0.40;;;17.00;99.90;17.20;99367.00;;;;4933213;28;116516;-66
2023/04/24 07:33:36;;;;;;;0.60;0.60;;;17.10;99.90;17.40;99362.00;;;;4936644;28;88864;-67
2023/04/24 07:36:02;;;;;;;1.67;0.50;;;17.30;99.60;17.60;99365.00;;;;4935934;28;88078;-67
2023/04/24 07:38:30;;;;;;;0.65;0.52;;;17.50;99.90;17.80;99372.00;;;;4937843;28;108472;-66
2023/04/24 07:40:56;;;;;;;0.50;0.50;;;17.60;99.10;17.90;99362.00;;;;4938592;28;89001;-66
2023/04/24 07:43:23;;;;;;;0.75;0.30;;;17.80;97.20;18.00;99376.00;;;;4935349;28;88016;-66
2023/04/24 07:45:50;;;;;;;0.38;0.30;;;17.90;96.90;18.10;99371.00;;;;4933158;28;87807;-67
2023/04/24 07:48:17;;;;;;;1.88;0.52;;;18.00;94.90;18.10;99374.00;;;;4929957;28;88300;-67
2023/04/24 07:50:46;;;;;;;0.70;0.50;;;18.10;94.70;18.30;99381.00;;;;4929960;28;87214;-66
2023/04/24 07:53:12;;;;;;;0.75;0.40;;;18.20;95.10;18.60;99380.00;;;;4933460;28;87793;-66
2023/04/24 07:55:37;;;;;;;0.90;0.38;;;18.40;95.30;18.90;99376.00;;;;4935595;28;87836;-65
2023/04/24 07:58:03;;;;;;;0.35;0.35;;;18.70;93.10;19.10;99378.00;;;;4932699;28;118599;-67
2023/04/24 08:00:29;;;;;;;2.75;0.45;;;19.00;92.20;19.20;99387.00;;;;4937280;28;118804;-66
2023/04/24 08:02:55;;;;;;;0.30;0.30;;;19.10;91.70;19.20;99379.00;;;;4930835;28;110168;-66
2023/04/24 08:05:20;;;;;;;0.60;0.55;;;19.20;89.50;19.10;99381.00;;;;4936450;28;107679;-67
2023/04/24 08:07:48;;;;;;;0.60;0.32;;;19.10;87.30;18.90;99385.00;;;;4928666;28;89541;-67
2023/04/24 08:10:14;;;;;;;0.30;0.30;;;18.90;88.20;18.70;99389.00;;;;4931119;28;88242;-67
2023/04/24 08:12:40;;;;;;;0.10;0.10;;;18.60;89.10;18.60;99392.00;;;;4934534;28;87973;-66
2023/04/24 08:15:07;;;;;;;0.52;0.45;;;18.60;88.60;18.40;99388.00;;;;4934445;28;98293;-66
2023/04/24 08:17:35;;;;;;;1.48;0.20;;;18.40;88.80;18.30;99391.00;;;;4937072;28;107548;-66
2023/04/24 08:20:02;;;;;;;0.70;0.50;;;18.30;88.70;18.30;99399.00;;;;4932392;28;88501;-66
2023/04/24 08:22:28;;;;;;;0.70;0.25;;;18.20;90.00;18.40;99399.00;;;;4930659;28;88700;-66
2023/04/24 08:24:55;;;;;;;0.22;0.22;;;18.30;90.70;18.60;99397.00;;;;4933437;28;87731;-66
2023/04/24 08:27:21;;;;;;;0.95;0.45;;;18.70;90.00;18.60;99392.00;;;;4930055;28;88624;-66
2023/04/24 08:29:47;;;;;;;0.30;0.30;;;18.40;88.20;18.50;99401.00;;;;4932577;28;118222;-66
2023/04/24 08:32:12;;;;;;;0.50;0.50;;;18.40;89.00;18.40;99397.00;;;;4932162;28;110284;-66
2023/04/24 08:34:38;;;;;;;1.38;0.30;;;18.40;89.00;18.30;99401.00;;;;4933980;28;106289;-66
2023/04/24 08:37:04;;;;;;;0.65;0.40;;;18.30;89.90;18.40;99405.00;;;;4933152;28;115887;-68
2023/04/24 08:39:33;;;;;;;1.40;0.25;;;18.30;89.50;18.50;99403.00;;;;4933106;28;88965;-66
2023/04/24 08:42:05;;;;;;;0.28;0.28;;;18.30;89.80;18.50;99407.00;;;;4933809;28;88159;-67
2023/04/24 08:44:32;;;;;;;0.75;0.32;;;18.30;88.20;18.30;99406.00;;;;4931589;28;87787;-66
2023/04/24 08:46:58;;;;;;;0.20;0.20;;;18.30;87.40;18.20;99408.00;;;;4929043;28;110622;-68
2023/04/24 08:49:26;;;;;;;0.57;0.47;;;18.10;85.00;18.00;99407.00;;;;4931032;28;117464;-67
2023/04/24 08:51:53;;;;;;;0.22;0.22;;;18.00;87.00;17.90;99418.00;;;;4933567;28;109086;-66
2023/04/24 08:54:19;;;;;;;0.73;0.52;;;17.90;87.00;17.80;99418.00;;;;4934023;28;87777;-68
2023/04/24 08:56:47;;;;;;;0.32;0.17;;;17.80;87.30;17.70;99419.00;;;;4931552;28;89200;-66
2023/04/24 08:59:15;;;;;;;0.20;0.20;;;17.70;87.90;17.70;99417.00;;;;4930297;28;88173;-66
2023/04/24 09:01:41;;;;;;;2.05;0.30;;;17.60;87.60;17.60;99416.00;;;;4932727;28;100397;-66
2023/04/24 09:04:13;;;;;;;0.50;0.50;;;17.60;87.70;17.60;99418.00;;;;4929356;28;86977;-67
2023/04/24 09:06:39;;;;;;;0.40;0.25;;;17.50;88.40;17.50;99422.00;;;;4931305;28;89007;-68
2023/04/24 09:09:05;;;;;;;0.38;0.38;;;17.50;88.50;17.50;99413.00;;;;4933144;28;116989;-67
2023/04/24 09:11:34;;;;;;;1.70;0.45;;;17.40;87.40;17.40;99415.00;;;;4931514;28;89082;-68
2023/04/24 09:14:01;;;;;;;1.15;0.50;;;17.40;87.90;17.50;99415.00;;;;4934612;28;87882;-67
2023/04/24 09:16:27;;;;;;;0.52;0.43;;;17.30;88.30;17.50;99416.00;;;;4935101;28;88290;-67
2023/04/24 09:18:53;;;;;;;0.93;0.40;;;17.40;88.00;17.50;99401.00;;;;4931392;28;88518;-67
2023/04/24 09:21:22;;;;;;;0.30;0.30;;;17.40;88.90;17.50;99413.00;;;;4934020;28;110135;-67
2023/04/24 09:23:59;;;;;;;0.10;0.10;;;17.40;88.20;17.60;99410.00;;;;4931191;28;88457;-67
2023/04/24 09:26:25;;;;;;;0.57;0.35;;;17.40;88.00;17.50;99413.00;;;;4934284;28;88920;-67
2023/04/24 09:28:51;;;;;;;0.40;0.40;;;17.40;88.40;17.50;99417.00;;;;4932418;28;87824;-67
2023/04/24 09:31:21;;;;;;;0.88;0.40;;;17.40;87.50;17.50;99413.00;;;;4922666;28;109481;-67
2023/04/24 09:33:56;;;;;;;2.53;0.82;;;17.40;88.60;17.50;99415.00;;;;4935500;28;88097;-67
2023/04/24 09:36:36;;;;;;;0.50;0.50;;;17.50;87.90;17.60;99413.00;;;;4933022;28;89114;-67
2023/04/24 09:39:15;;;;;;;0.35;0.20;;;17.50;87.30;17.60;99410.00;;;;4933030;28;89145;-67
2023/04/24 09:41:59;;;;;;;0.22;0.20;;;17.50;85.00;17.50;99404.00;;;;4929104;28;87684;-67
2023/04/24 09:44:27;;;;;;;0.20;0.15;;;17.40;84.80;17.40;99399.00;;;;4932738;28;87826;-67
2023/04/24 09:46:56;;;;;;;0.47;0.30;;;17.30;84.10;17.30;99405.00;;;;4932685;28;88962;-68
2023/04/24 09:49:30;;;;;;;0.63;0.63;;;17.30;84.80;17.30;99409.00;;;;4931545;28;88430;-67
2023/04/24 09:52:11;;;;;;;1.58;0.40;;;17.20;85.20;17.30;99402.00;;;;4936370;28;88034;-67
2023/04/24 09:54:38;;;;;;;0.60;0.50;;;17.20;86.60;17.40;99400.00;;;;4931926;28;87262;-67
2023/04/24 09:57:05;;;;;;;0.40;0.40;;;17.20;85.50;17.30;99405.00;;;;4932479;28;88036;-67
2023/04/24 09:59:30;;;;;;;0.50;0.40;;;17.20;85.00;17.20;99402.00;;;;4931271;28;87713;-67
2023/04/24 10:01:58;;;;;;;0.38;0.38;;;17.10;85.60;17.20;99412.00;;;;4931303;28;109860;-67
2023/04/24 10:04:28;;;;;;;0.30;0.30;;;17.10;85.10;17.10;99396.00;;;;4933238;28;87582;-67
2023/04/24 10:06:56;;;;;;;0.45;0.45;;;17.00;84.80;17.00;99406.00;;;;4931441;28;106544;-67
2023/04/24 10:09:25;;;;;;;0.10;0.10;;;17.00;85.20;17.00;99399.00;;;;4935881;28;106611;-66
2023/04/24 10:11:53;;;;;;;0.98;0.40;;;16.90;85.00;16.90;99401.00;;;;4933147;28;96164;-67
2023/04/24 10:14:23;;;;;;;2.38;0.57;;;16.90;85.10;17.00;99409.00;;;;4932977;28;87782;-67
2023/04/24 10:16:53;;;;;;;1.08;0.45;;;16.80;86.10;17.10;99404.00;;;;4934377;28;89866;-67
2023/04/24 10:19:18;;;;;;;0.20;0.20;;;16.90;85.70;17.20;99400.00;;;;4933192;28;88895;-67
2023/04/24 10:21:48;;;;;;;0.50;0.20;;;17.00;84.20;17.40;99398.00;;;;4933267;28;108675;-67
2023/04/24 10:24:16;;;;;;;0.40;0.30;;;17.20;83.30;17.50;99405.00;;;;4934024;28;87890;-67
2023/04/24 10:26:43;;;;;;;0.20;0.20;;;17.30;83.10;17.80;99402.00;;;;4929730;28;89876;-67
2023/04/24 10:29:12;;;;;;;0.45;0.45;;;17.50;83.60;18.20;99399.00;;;;4932270;28;89529;-67
2023/04/24 10:31:39;;;;;;;0.43;0.20;;;17.80;82.30;18.40;99387.00;;;;4934895;28;87777;-67
2023/04/24 10:34:06;;;;;;;0.55;0.55;;;18.10;80.40;18.50;99409.00;;;;4938198;28;88178;-67
2023/04/24 10:36:34;;;;;;;0.73;0.40;;;18.30;78.60;18.70;99415.00;;;;4929415;28;88568;-67
2023/04/24 10:39:08;;;;;;;0.43;0.40;;;18.40;78.00;18.70;99392.00;;;;4932032;28;88333;-67
2023/04/24 10:41:37;;;;;;;0.40;0.30;;;18.50;77.50;18.70;99400.00;;;;4933496;28;88956;-67
2023/04/24 10:44:13;;;;;;;0.32;0.30;;;18.50;76.00;18.60;99412.00;;;;4934052;28;86954;-67
2023/04/24 10:46:43;;;;;;;0.20;0.20;;;18.50;75.30;18.60;99401.00;;;;4934786;28;88256;-68
2023/04/24 10:49:09;;;;;;;0.20;0.20;;;18.40;75.10;18.60;99410.00;;;;4932292;28;109125;-67
2023/04/24 10:51:52;;;;;;;0.30;0.30;;;18.40;75.10;18.60;99407.00;;;;4932876;28;88866;-67